ETNWETNN

Guest
Details From ETNW - WUNSTORF
To ETNN - NORVENICH
Flight Number -
Tags generated
Created
Modified
Stats Distance 142 nm / 263 km
Max Altitude 2,200 ft / 671 m
Waypoints 3
Social Downloads 0
Likes 0
Share VATSIM

Download

Looking for another format? Having issues loading an existing format? Contact us
Advertisement - Login to hide

Notes

Basic altitude profile: - Ascent Rate: 400ft/min - Ascent Speed: 100kts - Cruise Altitude: 8500ft - Cruise Speed: 420kts - Descent Rate: 1500ft/min - Descent Speed: 250kts

Route

ETNW DENOL ETNN

ID Type Via Altitude Latitude Longitude Leg Dist Tot Dist Heading (true) Name
O ETNW APT - 0 ft / 0 m 52.45492˚ 9.42803˚ - 0 nm - WUNSTORF
DENOL FIX - 2,200 ft / 671 m 51.98333˚ 8.67278˚ 39 nm 39 nm 225° / 224° -
O ETNN APT - 0 ft / 0 m 50.83116˚ 6.65811˚ 102 nm 142 nm 228° / 227° NORVENICH

Altitude Profile

Advertisement - Login to hide

ETNW

Details ICAO ETNW
Name WUNSTORF
Region Germany - Military
Timezone Europe/Berlin (UTC+1.0)
Stats Elevation 187 ft / 57 m (AMSL)
Location 52.454917° 9.428028°
Runways 3
Magnetic Variation 2.600° E

METAR

ETNW 111520Z 08011KT 3700 BR BKN006 OVC012 M00/M01 Q0981 RESN YLO YLO TEMPO AMB

Decode

TAF

TAF TAF AMD ETNW 111202Z 1112/1212 07012KT 3000 -SN BKN012 TEMPO 1112/1118 10014G24KT 1000 +SN OVC002 PROB30 1117/1119 12012G22KT 1200 -FZDZ OVC002 BECMG 1118/1120 18015G25KT 6000 -RA SCT008 BKN020 TEMPO 1120/1203 24015G30KT 4000 RA BKN008 BECMG 1202/1204 27015G30KT 3000 SN OVC003 TEMPO 1203/1209 29020G35KT 1500 +SN OVC002 TEMPO 1209/1212 26020G35KT 0800 SHSN BKN002 BKN008CB BY ETGL

Decode

Departure Runways

ID Width Length Bearing (true) Bearing (mag) Surface Threshold Offset Overrun Length
03 156 ft / 48 m 5,588 ft / 1,703 m 26.81° 24.21° Asphalt 0 ft / 0 m 0 ft / 0 m
08 153 ft / 47 m 6,137 ft / 1,871 m 82.02° 79.42° Asphalt 0 ft / 0 m 0 ft / 0 m
08R 132 ft / 40 m 3,563 ft / 1,086 m 81.16° 78.56° Grass 0 ft / 0 m 0 ft / 0 m
21 156 ft / 48 m 5,588 ft / 1,703 m 206.81° 204.21° Asphalt 0 ft / 0 m 0 ft / 0 m
26 153 ft / 47 m 6,137 ft / 1,871 m 262.04° 259.44° Asphalt 0 ft / 0 m 0 ft / 0 m
26L 132 ft / 40 m 3,563 ft / 1,086 m 261.17° 258.57° Grass 0 ft / 0 m 0 ft / 0 m

ETNN

Details ICAO ETNN
Name NORVENICH
Region Germany - Military
Timezone Europe/Berlin (UTC+1.0)
Stats Elevation 386 ft / 118 m (AMSL)
Location 50.831161° 6.658110°
Runways 1
Magnetic Variation 1.785° E

METAR

ETNN 111520Z 15004KT 9999 FEW012 SCT060 BKN140 07/05 Q0976 BLU BLU TEMPO WHT

Decode

TAF

Not found

Destination Runways

ID Width Length Bearing (true) Bearing (mag) Surface Threshold Offset Overrun Length
07 148 ft / 45 m 7,980 ft / 2,432 m 66.61° 64.82° Asphalt 0 ft / 0 m 902 ft / 275 m
25 148 ft / 45 m 7,980 ft / 2,432 m 246.63° 244.84° Asphalt 0 ft / 0 m 902 ft / 275 m